createdAt,value
2022-08-21T00:02:16.552Z,3.40
2022-08-21T00:04:48.296Z,3.15
2022-08-21T00:07:25.387Z,3.10
2022-08-21T00:09:52.597Z,3.45
2022-08-21T00:12:22.047Z,2.95
2022-08-21T00:14:48.889Z,2.85
2022-08-21T00:17:18.526Z,3.17
2022-08-21T00:19:45.100Z,3.30
2022-08-21T00:22:11.718Z,3.08
2022-08-21T00:24:38.365Z,2.83
2022-08-21T00:27:05.234Z,3.00
2022-08-21T00:29:31.866Z,3.45
2022-08-21T00:31:59.643Z,3.00
2022-08-21T00:34:26.320Z,2.95
2022-08-21T00:36:52.913Z,3.35
2022-08-21T00:39:19.668Z,3.10
2022-08-21T00:41:46.342Z,3.47
2022-08-21T00:44:15.404Z,3.70
2022-08-21T00:46:43.818Z,3.40
2022-08-21T00:49:15.136Z,3.58
2022-08-21T00:51:48.517Z,3.50
2022-08-21T00:54:19.006Z,3.80
2022-08-21T00:56:48.939Z,3.80
2022-08-21T00:59:17.815Z,4.30
2022-08-21T01:01:44.761Z,3.80
2022-08-21T01:04:12.305Z,3.67
2022-08-21T01:06:38.850Z,4.43
2022-08-21T01:09:05.546Z,3.63
2022-08-21T01:11:32.231Z,3.33
2022-08-21T01:13:58.953Z,2.92
2022-08-21T01:16:26.078Z,3.22
2022-08-21T01:18:52.842Z,2.80
2022-08-21T01:21:28.061Z,3.10
2022-08-21T01:23:57.178Z,2.90
2022-08-21T01:26:34.568Z,3.17
2022-08-21T01:29:12.744Z,4.20
2022-08-21T01:31:39.920Z,2.88
2022-08-21T01:34:07.861Z,3.28
2022-08-21T01:36:34.882Z,3.40
2022-08-21T01:39:02.046Z,2.78
2022-08-21T01:41:28.890Z,3.30
2022-08-21T01:43:55.591Z,3.28
2022-08-21T01:46:22.385Z,2.80
2022-08-21T01:48:51.547Z,2.88
2022-08-21T01:51:18.243Z,3.03
2022-08-21T01:53:44.880Z,3.17
2022-08-21T01:56:14.920Z,2.60
2022-08-21T01:58:42.640Z,3.58
2022-08-21T02:01:10.454Z,2.55
2022-08-21T02:03:37.734Z,2.97
2022-08-21T02:06:06.111Z,2.95
2022-08-21T02:08:32.831Z,3.13
2022-08-21T02:11:00.132Z,3.83
2022-08-21T02:13:27.195Z,2.67
2022-08-21T02:15:53.809Z,3.20
2022-08-21T02:18:20.443Z,2.88
2022-08-21T02:20:56.302Z,2.90
2022-08-21T02:23:27.677Z,3.05
2022-08-21T02:26:02.901Z,3.20
2022-08-21T02:28:30.839Z,3.15
2022-08-21T02:30:57.976Z,3.42
2022-08-21T02:33:28.161Z,3.00
2022-08-21T02:35:55.958Z,3.30
2022-08-21T02:38:27.144Z,3.50
2022-08-21T02:40:55.172Z,3.40
2022-08-21T02:43:24.819Z,3.40
2022-08-21T02:45:52.871Z,3.67
2022-08-21T02:48:23.866Z,3.00
2022-08-21T02:51:00.326Z,3.42
2022-08-21T02:53:27.867Z,3.00
2022-08-21T02:55:54.891Z,3.63
2022-08-21T02:58:25.614Z,3.88
2022-08-21T03:00:53.056Z,3.38
2022-08-21T03:03:22.060Z,3.10
2022-08-21T03:05:52.137Z,3.47
2022-08-21T03:08:19.646Z,4.03
2022-08-21T03:10:49.236Z,3.53
2022-08-21T03:13:17.068Z,3.60
2022-08-21T03:15:44.078Z,3.67
2022-08-21T03:18:12.923Z,3.78
2022-08-21T03:20:41.459Z,4.20
2022-08-21T03:23:14.328Z,3.63
2022-08-21T03:25:46.842Z,3.60
2022-08-21T03:28:16.610Z,4.22
2022-08-21T03:30:45.519Z,3.65
2022-08-21T03:33:12.469Z,3.72
2022-08-21T03:35:46.073Z,3.80
2022-08-21T03:38:13.985Z,3.65
2022-08-21T03:40:42.010Z,4.28
2022-08-21T03:43:10.608Z,4.03
2022-08-21T03:45:38.845Z,4.28
2022-08-21T03:48:07.648Z,4.10
2022-08-21T03:50:40.738Z,3.80
2022-08-21T03:53:16.666Z,2.88
2022-08-21T03:55:44.782Z,3.08
2022-08-21T03:58:16.938Z,3.40
2022-08-21T04:00:46.196Z,3.00
2022-08-21T04:03:12.956Z,3.00
2022-08-21T04:05:39.800Z,3.20
2022-08-21T04:08:07.109Z,2.95
2022-08-21T04:10:36.933Z,3.35
2022-08-21T04:13:05.400Z,2.83
2022-08-21T04:15:32.041Z,3.65
2022-08-21T04:17:58.842Z,3.30
2022-08-21T04:20:26.403Z,3.50
2022-08-21T04:22:53.466Z,3.47
2022-08-21T04:25:22.777Z,3.63
2022-08-21T04:27:49.848Z,3.95
2022-08-21T04:30:17.163Z,3.30
2022-08-21T04:32:56.324Z,3.85
2022-08-21T04:35:24.188Z,3.78
2022-08-21T04:37:51.230Z,2.90
2022-08-21T04:40:20.297Z,3.05
2022-08-21T04:42:52.793Z,3.15
2022-08-21T04:45:36.710Z,2.97
2022-08-21T04:50:37.290Z,3.15
2022-08-21T04:53:08.341Z,3.50
2022-08-21T04:55:35.380Z,3.50
2022-08-21T04:58:02.312Z,3.40
2022-08-21T05:00:29.076Z,3.67
2022-08-21T05:03:00.296Z,3.10
2022-08-21T05:05:30.031Z,2.97
2022-08-21T05:07:59.448Z,3.00
2022-08-21T05:10:26.715Z,3.30
2022-08-21T05:12:53.867Z,2.20
2022-08-21T05:15:20.916Z,2.70
2022-08-21T05:17:52.574Z,2.47
2022-08-21T05:20:27.469Z,2.63
2022-08-21T05:22:54.129Z,2.80
2022-08-21T05:25:22.246Z,2.80
2022-08-21T05:27:52.397Z,2.58
2022-08-21T05:30:20.081Z,2.53
2022-08-21T05:32:50.774Z,2.50
2022-08-21T05:35:17.427Z,2.35
2022-08-21T05:37:44.016Z,2.60
2022-08-21T05:40:22.549Z,2.80
2022-08-21T05:42:55.588Z,2.40
2022-08-21T05:45:41.342Z,2.15
2022-08-21T05:48:19.224Z,2.33
2022-08-21T05:50:50.719Z,2.25
2022-08-21T05:53:19.224Z,2.17
2022-08-21T05:55:46.952Z,2.22
2022-08-21T05:58:20.253Z,2.20
2022-08-21T06:00:48.862Z,2.20
2022-08-21T06:03:24.997Z,2.33
2022-08-21T06:05:53.280Z,2.10
2022-08-21T06:08:20.890Z,2.17
2022-08-21T06:10:49.087Z,2.47
2022-08-21T06:13:17.865Z,2.03
2022-08-21T06:15:48.133Z,2.15
2022-08-21T06:18:15.224Z,1.92
2022-08-21T06:20:42.012Z,2.30
2022-08-21T06:23:08.929Z,2.08
2022-08-21T06:25:36.033Z,1.90
2022-08-21T06:28:10.839Z,2.17
2022-08-21T06:30:40.358Z,2.10
2022-08-21T06:33:07.958Z,2.10
2022-08-21T06:35:35.092Z,2.10
2022-08-21T06:38:02.470Z,2.00
2022-08-21T06:40:30.396Z,2.13
2022-08-21T06:43:10.238Z,2.08
2022-08-21T06:45:37.045Z,1.98
2022-08-21T06:48:04.583Z,2.40
2022-08-21T06:50:33.296Z,2.35
2022-08-21T06:53:02.425Z,2.10
2022-08-21T06:55:29.347Z,2.30
2022-08-21T06:57:55.961Z,2.63
2022-08-21T07:00:22.667Z,2.40
2022-08-21T07:02:49.569Z,2.70
2022-08-21T07:05:18.407Z,2.55
2022-08-21T07:07:46.649Z,2.70
2022-08-21T07:10:22.128Z,2.63
2022-08-21T07:12:52.560Z,2.50
2022-08-21T07:15:31.511Z,2.63
2022-08-21T07:17:59.800Z,2.70
2022-08-21T07:20:28.533Z,3.20
2022-08-21T07:22:56.139Z,3.08
2022-08-21T07:25:23.587Z,2.90
2022-08-21T07:27:50.290Z,2.92
2022-08-21T07:30:16.894Z,2.90
2022-08-21T07:32:43.469Z,3.08
2022-08-21T07:35:10.114Z,3.03
2022-08-21T07:37:36.829Z,3.00
2022-08-21T07:40:04.465Z,3.00
2022-08-21T07:42:31.133Z,3.20
2022-08-21T07:44:57.686Z,3.30
2022-08-21T07:47:42.545Z,3.15
2022-08-21T07:50:13.210Z,3.03
2022-08-21T07:52:41.219Z,3.40
2022-08-21T07:55:09.617Z,2.92
2022-08-21T07:57:36.330Z,3.40
2022-08-21T08:00:05.705Z,3.13
2022-08-21T08:02:39.210Z,3.70
2022-08-21T08:05:10.236Z,3.70
2022-08-21T08:07:36.884Z,3.50
2022-08-21T08:10:07.529Z,3.58
2022-08-21T08:12:35.929Z,3.38
2022-08-21T08:15:02.785Z,3.20
2022-08-21T08:17:29.502Z,3.70
2022-08-21T08:19:56.449Z,4.03
2022-08-21T08:22:26.808Z,4.82
2022-08-21T08:24:54.537Z,3.90
2022-08-21T08:27:21.954Z,4.20
2022-08-21T08:29:48.786Z,4.13
2022-08-21T08:32:15.853Z,3.95
2022-08-21T08:34:42.496Z,3.67
2022-08-21T08:37:11.061Z,3.92
2022-08-21T08:39:39.131Z,3.28
2022-08-21T08:42:32.764Z,3.65
2022-08-21T08:45:00.588Z,3.85
2022-08-21T08:47:28.635Z,3.60
2022-08-21T08:50:17.643Z,3.80
2022-08-21T08:52:52.451Z,3.60
2022-08-21T08:55:27.241Z,4.05
2022-08-21T08:57:55.589Z,3.83
2022-08-21T09:00:23.993Z,3.60
2022-08-21T09:02:58.188Z,4.53
2022-08-21T09:05:29.731Z,4.20
2022-08-21T09:08:12.626Z,3.78
2022-08-21T09:11:12.878Z,4.22
2022-08-21T09:13:56.818Z,3.85
2022-08-21T09:16:29.745Z,3.90
2022-08-21T09:21:50.969Z,3.70
2022-08-21T09:24:29.415Z,3.30
2022-08-21T09:27:06.120Z,3.55
2022-08-21T09:29:36.297Z,3.75
2022-08-21T09:32:10.407Z,3.40
2022-08-21T09:34:37.143Z,3.70
2022-08-21T09:37:03.837Z,4.00
2022-08-21T09:39:39.982Z,3.70
2022-08-21T09:42:10.005Z,2.97
2022-08-21T09:44:41.526Z,3.30
2022-08-21T09:47:10.310Z,3.72
2022-08-21T09:49:40.585Z,3.53
2022-08-21T09:52:22.761Z,3.28
2022-08-21T09:54:54.291Z,3.25
2022-08-21T09:57:46.433Z,3.35
2022-08-21T10:00:22.564Z,3.35
2022-08-21T10:02:51.638Z,3.40
2022-08-21T10:05:25.215Z,3.38
2022-08-21T10:07:52.642Z,3.30
2022-08-21T10:10:23.767Z,3.95
2022-08-21T10:13:14.961Z,3.40
2022-08-21T10:15:44.394Z,3.30
2022-08-21T10:18:35.884Z,3.65
2022-08-21T10:21:18.646Z,3.80
2022-08-21T10:24:32.189Z,3.50
2022-08-21T10:27:23.877Z,3.42
2022-08-21T10:30:02.108Z,3.55
2022-08-21T10:32:41.931Z,3.92
2022-08-21T10:35:35.463Z,3.88
2022-08-21T10:38:39.272Z,3.63
2022-08-21T10:41:22.590Z,4.00
2022-08-21T10:44:23.201Z,3.88
2022-08-21T10:47:00.878Z,4.25
2022-08-21T10:49:49.157Z,3.22
2022-08-21T10:52:44.248Z,3.67
2022-08-21T10:55:18.152Z,3.45
2022-08-21T10:57:50.541Z,3.60
2022-08-21T11:00:21.614Z,3.17
2022-08-21T11:03:14.125Z,2.70
2022-08-21T11:05:51.092Z,3.05
2022-08-21T11:08:47.727Z,2.90
2022-08-21T11:11:23.629Z,3.20
2022-08-21T11:13:56.200Z,3.10
2022-08-21T11:16:42.475Z,3.03
2022-08-21T11:19:19.307Z,2.70
2022-08-21T11:21:51.887Z,2.67
2022-08-21T11:27:04.549Z,3.00
2022-08-21T11:29:35.648Z,3.17
2022-08-21T11:32:13.062Z,2.70
2022-08-21T11:34:58.293Z,2.50
2022-08-21T11:38:02.361Z,2.67
2022-08-21T11:40:51.110Z,3.00
2022-08-21T11:43:23.198Z,2.90
2022-08-21T11:46:11.799Z,2.90
2022-08-21T11:48:44.920Z,3.30
2022-08-21T11:51:16.043Z,2.80
2022-08-21T11:54:07.166Z,2.80
2022-08-21T11:56:45.339Z,2.92
2022-08-21T11:59:23.894Z,2.92
2022-08-21T12:01:52.825Z,2.58
2022-08-21T12:04:31.887Z,2.92
2022-08-21T12:07:11.625Z,2.75
2022-08-21T12:09:38.314Z,2.58
2022-08-21T12:12:33.485Z,2.90
2022-08-21T12:15:24.350Z,2.63
2022-08-21T12:17:56.883Z,2.80
2022-08-21T12:20:30.578Z,2.75
2022-08-21T12:23:19.686Z,2.53
2022-08-21T12:26:02.612Z,3.20
2022-08-21T12:28:35.286Z,2.75
2022-08-21T12:31:01.903Z,2.80
2022-08-21T12:33:35.291Z,3.15
2022-08-21T12:36:11.566Z,2.92
2022-08-21T12:38:52.646Z,2.60
2022-08-21T12:42:02.149Z,2.80
2022-08-21T12:44:46.743Z,2.60
2022-08-21T12:47:32.923Z,2.60
2022-08-21T12:50:07.475Z,2.60
2022-08-21T12:52:40.691Z,2.58
2022-08-21T12:55:26.727Z,2.78
2022-08-21T12:57:53.390Z,2.88
2022-08-21T13:00:26.673Z,2.70
2022-08-21T13:02:55.972Z,2.75
2022-08-21T13:05:25.756Z,2.60
2022-08-21T13:07:57.136Z,2.80
2022-08-21T13:10:30.967Z,2.95
2022-08-21T13:13:02.784Z,2.70
2022-08-21T13:15:47.573Z,2.80
2022-08-21T13:18:26.289Z,2.75
2022-08-21T13:21:06.339Z,3.13
2022-08-21T13:23:35.799Z,2.60
2022-08-21T13:26:17.834Z,2.70
2022-08-21T13:28:48.213Z,2.80
2022-08-21T13:31:22.104Z,2.80
2022-08-21T13:33:50.018Z,2.80
2022-08-21T13:36:25.151Z,2.92
2022-08-21T13:38:56.907Z,2.75
2022-08-21T13:41:33.195Z,2.67
2022-08-21T13:44:05.804Z,2.90
2022-08-21T13:46:36.565Z,2.70
2022-08-21T13:49:05.841Z,2.60
2022-08-21T13:51:33.358Z,2.70
2022-08-21T13:54:00.081Z,2.70
2022-08-21T13:56:42.068Z,2.78
2022-08-21T13:59:11.658Z,2.40
2022-08-21T14:01:55.782Z,2.70
2022-08-21T14:04:53.069Z,2.53
2022-08-21T14:07:26.977Z,2.50
2022-08-21T14:09:54.381Z,2.42
2022-08-21T14:12:30.585Z,2.50
2022-08-21T14:14:58.560Z,2.70
2022-08-21T14:17:33.620Z,2.70
2022-08-21T14:20:04.482Z,2.80
2022-08-21T14:22:46.259Z,2.50
2022-08-21T14:25:15.327Z,2.47
2022-08-21T14:27:52.586Z,2.50
2022-08-21T14:30:25.216Z,2.70
2022-08-21T14:32:51.976Z,2.33
2022-08-21T14:35:18.813Z,2.40
2022-08-21T14:37:54.994Z,2.65
2022-08-21T14:40:23.914Z,2.75
2022-08-21T14:42:50.872Z,3.03
2022-08-21T14:45:29.180Z,2.50
2022-08-21T14:47:56.861Z,2.47
2022-08-21T14:50:24.303Z,2.50
2022-08-21T14:52:54.518Z,2.40
2022-08-21T14:55:21.263Z,2.70
2022-08-21T14:57:52.728Z,2.45
2022-08-21T15:00:26.973Z,2.60
2022-08-21T15:03:02.567Z,3.17
2022-08-21T15:05:33.698Z,2.70
2022-08-21T15:08:01.561Z,3.00
2022-08-21T15:10:33.506Z,2.80
2022-08-21T15:13:00.228Z,2.92
2022-08-21T15:15:27.136Z,3.30
2022-08-21T15:17:53.654Z,3.13
2022-08-21T15:20:20.289Z,2.90
2022-08-21T15:22:48.964Z,3.10
2022-08-21T15:25:17.974Z,2.92
2022-08-21T15:27:44.871Z,3.00
2022-08-21T15:30:11.993Z,2.90
2022-08-21T15:32:39.084Z,2.92
2022-08-21T15:35:06.168Z,2.80
2022-08-21T15:37:33.338Z,2.80
2022-08-21T15:40:02.245Z,3.10
2022-08-21T15:42:33.950Z,2.90
2022-08-21T15:45:00.671Z,2.85
2022-08-21T15:47:34.077Z,2.83
2022-08-21T15:50:03.006Z,3.20
2022-08-21T15:52:29.624Z,3.25
2022-08-21T15:54:56.170Z,3.03
2022-08-21T15:57:30.125Z,3.00
2022-08-21T16:01:01.193Z,2.88
2022-08-21T16:03:29.032Z,2.75
2022-08-21T16:06:00.082Z,3.05
2022-08-21T16:08:26.834Z,3.10
2022-08-21T16:10:54.928Z,2.90
2022-08-21T16:13:27.017Z,2.80
2022-08-21T16:15:54.153Z,2.88
2022-08-21T16:18:21.163Z,3.05
2022-08-21T16:20:47.836Z,2.97
2022-08-21T16:23:14.860Z,3.15
2022-08-21T16:25:42.356Z,2.85
2022-08-21T16:28:14.570Z,2.70
2022-08-21T16:30:43.070Z,2.63
2022-08-21T16:33:36.920Z,2.85
2022-08-21T16:36:05.654Z,2.55
2022-08-21T16:38:34.681Z,2.60
2022-08-21T16:41:09.724Z,2.90
2022-08-21T16:43:36.645Z,2.73
2022-08-21T16:46:06.048Z,2.60
2022-08-21T16:48:36.820Z,2.50
2022-08-21T16:51:07.884Z,2.70
2022-08-21T16:53:34.835Z,2.80
2022-08-21T16:56:05.062Z,2.85
2022-08-21T16:58:36.089Z,2.80
2022-08-21T17:01:10.406Z,2.70
2022-08-21T17:03:44.946Z,2.90
2022-08-21T17:06:12.490Z,2.50
2022-08-21T17:08:39.133Z,2.90
2022-08-21T17:11:09.179Z,3.10
2022-08-21T17:13:38.959Z,3.25
2022-08-21T17:16:06.506Z,3.55
2022-08-21T17:18:33.211Z,3.30
2022-08-21T17:21:03.206Z,3.70
2022-08-21T17:23:29.797Z,3.70
2022-08-21T17:25:57.329Z,3.38
2022-08-21T17:28:27.846Z,3.45
2022-08-21T17:30:56.681Z,3.05
2022-08-21T17:33:25.378Z,3.00
2022-08-21T17:35:53.481Z,3.53
2022-08-21T17:38:20.357Z,2.85
2022-08-21T17:40:48.027Z,3.22
2022-08-21T17:43:15.780Z,3.10
2022-08-21T17:45:44.457Z,3.20
2022-08-21T17:48:14.398Z,3.10
2022-08-21T17:50:41.232Z,3.20
2022-08-21T17:53:07.896Z,3.30
2022-08-21T17:55:34.869Z,3.22
2022-08-21T17:58:03.618Z,3.00
2022-08-21T18:00:31.703Z,3.25
2022-08-21T18:03:18.607Z,3.10
2022-08-21T18:05:48.580Z,3.03
2022-08-21T18:08:18.081Z,3.20
2022-08-21T18:10:46.972Z,3.00
2022-08-21T18:13:17.330Z,3.13
2022-08-21T18:15:46.566Z,3.20
2022-08-21T18:18:16.157Z,3.20
2022-08-21T18:20:44.824Z,3.30
2022-08-21T18:23:14.403Z,3.83
2022-08-21T18:25:46.165Z,3.60
2022-08-21T18:28:13.270Z,4.75
2022-08-21T18:30:42.623Z,4.28
2022-08-21T18:33:11.841Z,4.70
2022-08-21T18:35:38.424Z,5.10
2022-08-21T18:38:07.227Z,4.68
2022-08-21T18:40:37.803Z,4.72
2022-08-21T18:43:09.983Z,4.38
2022-08-21T18:45:42.706Z,4.35
2022-08-21T18:48:13.048Z,4.30
2022-08-21T18:50:42.647Z,4.10
2022-08-21T18:53:20.865Z,4.40
2022-08-21T18:58:24.010Z,4.35
2022-08-21T19:00:51.695Z,4.10
2022-08-21T19:03:23.823Z,4.20
2022-08-21T19:05:52.280Z,4.43
2022-08-21T19:08:21.353Z,4.70
2022-08-21T19:10:55.514Z,4.32
2022-08-21T19:13:22.853Z,4.47
2022-08-21T19:15:53.589Z,4.38
2022-08-21T19:18:28.333Z,4.32
2022-08-21T19:23:44.408Z,4.30
2022-08-21T19:26:12.101Z,5.28
2022-08-21T19:28:45.920Z,5.13
2022-08-21T19:34:01.404Z,5.35
2022-08-21T19:36:29.238Z,4.97
2022-08-21T19:38:55.945Z,4.88
2022-08-21T19:41:32.044Z,4.88
2022-08-21T19:44:01.889Z,5.10
2022-08-21T19:46:35.336Z,5.07
2022-08-21T19:49:03.744Z,5.70
2022-08-21T19:51:34.099Z,5.38
2022-08-21T19:54:01.532Z,6.18
2022-08-21T19:56:30.714Z,6.25
2022-08-21T19:59:02.265Z,6.72
2022-08-21T20:01:34.376Z,7.30
2022-08-21T20:04:01.063Z,6.68
2022-08-21T20:06:30.403Z,6.28
2022-08-21T20:08:57.112Z,6.45
2022-08-21T20:11:35.973Z,6.10
2022-08-21T20:14:02.692Z,6.18
2022-08-21T20:16:29.641Z,6.20
2022-08-21T20:18:56.598Z,5.82
2022-08-21T20:21:26.510Z,6.30
2022-08-21T20:23:53.064Z,5.75
2022-08-21T20:26:19.841Z,5.85
2022-08-21T20:28:46.519Z,6.18
2022-08-21T20:31:17.711Z,6.53
2022-08-21T20:33:46.662Z,5.72
2022-08-21T20:36:16.792Z,5.57
2022-08-21T20:38:44.210Z,5.90
2022-08-21T20:41:21.462Z,5.30
2022-08-21T20:44:04.327Z,4.70
2022-08-21T20:46:32.169Z,4.90
2022-08-21T20:49:03.552Z,5.38
2022-08-21T20:51:33.176Z,4.68
2022-08-21T20:54:24.309Z,4.90
2022-08-21T20:57:05.869Z,4.88
2022-08-21T20:59:46.742Z,4.72
2022-08-21T21:02:16.452Z,4.95
2022-08-21T21:04:47.744Z,4.53
2022-08-21T21:07:34.824Z,4.18
2022-08-21T21:10:06.017Z,4.80
2022-08-21T21:12:37.658Z,4.53
2022-08-21T21:15:14.505Z,4.53
2022-08-21T21:17:47.266Z,4.30
2022-08-21T21:20:34.444Z,4.85
2022-08-21T21:23:28.167Z,4.80
2022-08-21T21:26:29.233Z,4.70
2022-08-21T21:29:14.421Z,4.70
2022-08-21T21:31:41.565Z,4.80
2022-08-21T21:34:09.048Z,5.47
2022-08-21T21:37:07.922Z,4.40
2022-08-21T21:39:37.196Z,4.88
2022-08-21T21:42:34.712Z,5.13
2022-08-21T21:45:01.237Z,5.13
2022-08-21T21:47:47.490Z,5.55
2022-08-21T21:50:51.404Z,5.10
2022-08-21T21:53:29.811Z,5.40
2022-08-21T21:56:14.267Z,5.40
2022-08-21T21:59:20.432Z,5.60
2022-08-21T22:02:05.835Z,5.30
2022-08-21T22:04:53.614Z,5.53
2022-08-21T22:07:21.111Z,5.72
2022-08-21T22:09:57.995Z,5.65
2022-08-21T22:12:49.570Z,5.15
2022-08-21T22:15:26.225Z,5.30
2022-08-21T22:18:10.088Z,5.85
2022-08-21T22:20:48.864Z,5.10
2022-08-21T22:23:22.610Z,4.85
2022-08-21T22:25:54.086Z,6.00
2022-08-21T22:31:23.076Z,5.50
2022-08-21T22:34:14.258Z,5.43
2022-08-21T22:37:01.041Z,5.15
2022-08-21T22:39:39.165Z,5.43
2022-08-21T22:42:28.109Z,5.45
2022-08-21T22:45:12.234Z,5.90
2022-08-21T22:47:44.835Z,5.22
2022-08-21T22:52:54.888Z,5.40
2022-08-21T22:55:25.865Z,5.53
2022-08-21T22:58:06.992Z,6.00
2022-08-21T23:00:49.683Z,5.68
2022-08-21T23:03:23.376Z,5.65
2022-08-21T23:05:51.856Z,5.63
2022-08-21T23:08:24.003Z,5.43
2022-08-21T23:10:56.416Z,5.65
2022-08-21T23:13:23.019Z,5.80
2022-08-21T23:16:01.509Z,5.20
2022-08-21T23:18:54.236Z,5.63
2022-08-21T23:21:32.627Z,5.80
2022-08-21T23:24:19.600Z,5.57
2022-08-21T23:27:07.896Z,5.35
2022-08-21T23:29:59.587Z,6.22
2022-08-21T23:33:09.064Z,5.60
2022-08-21T23:36:19.292Z,6.00
2022-08-21T23:38:51.279Z,5.95
2022-08-21T23:41:34.125Z,6.07
2022-08-21T23:44:31.603Z,5.78
2022-08-21T23:47:13.349Z,5.28
2022-08-21T23:49:48.414Z,6.03
2022-08-21T23:52:42.858Z,6.00
2022-08-21T23:55:46.137Z,6.00
2022-08-21T23:58:29.249Z,5.90
